sensor_id;sensor_type;location;lat;lon;timestamp;temperature;humidity
44705;DHT22;30431;48.520;9.046;2023-07-13T00:00:02;19.60;93.10
44705;DHT22;30431;48.520;9.046;2023-07-13T00:02:31;19.60;92.70
44705;DHT22;30431;48.520;9.046;2023-07-13T00:05:02;19.50;92.80
44705;DHT22;30431;48.520;9.046;2023-07-13T00:07:29;19.40;92.60
44705;DHT22;30431;48.520;9.046;2023-07-13T00:09:58;19.30;92.70
44705;DHT22;30431;48.520;9.046;2023-07-13T00:12:28;19.20;93.10
44705;DHT22;30431;48.520;9.046;2023-07-13T00:15:00;19.20;93.70
44705;DHT22;30431;48.520;9.046;2023-07-13T00:17:28;19.10;93.70
44705;DHT22;30431;48.520;9.046;2023-07-13T00:19:56;19.10;93.90
44705;DHT22;30431;48.520;9.046;2023-07-13T00:22:25;19.10;94.10
44705;DHT22;30431;48.520;9.046;2023-07-13T00:24:53;19.00;94.70
44705;DHT22;30431;48.520;9.046;2023-07-13T00:27:23;19.00;95.20
44705;DHT22;30431;48.520;9.046;2023-07-13T00:29:55;19.10;96.10
44705;DHT22;30431;48.520;9.046;2023-07-13T00:32:24;19.00;95.70
44705;DHT22;30431;48.520;9.046;2023-07-13T00:34:52;18.90;96.40
44705;DHT22;30431;48.520;9.046;2023-07-13T00:37:19;18.80;96.90
44705;DHT22;30431;48.520;9.046;2023-07-13T00:39:51;18.70;96.90
44705;DHT22;30431;48.520;9.046;2023-07-13T00:42:18;18.60;97.60
44705;DHT22;30431;48.520;9.046;2023-07-13T00:45:07;18.50;97.30
44705;DHT22;30431;48.520;9.046;2023-07-13T00:47:53;18.40;97.30
44705;DHT22;30431;48.520;9.046;2023-07-13T00:50:21;18.40;97.40
44705;DHT22;30431;48.520;9.046;2023-07-13T00:52:52;18.30;97.30
44705;DHT22;30431;48.520;9.046;2023-07-13T00:55:21;18.30;97.50
44705;DHT22;30431;48.520;9.046;2023-07-13T00:57:51;18.30;97.50
44705;DHT22;30431;48.520;9.046;2023-07-13T01:00:20;18.20;97.90
44705;DHT22;30431;48.520;9.046;2023-07-13T01:02:50;18.20;97.60
44705;DHT22;30431;48.520;9.046;2023-07-13T01:05:20;18.10;97.90
44705;DHT22;30431;48.520;9.046;2023-07-13T01:07:49;18.00;98.30
44705;DHT22;30431;48.520;9.046;2023-07-13T01:10:23;17.90;98.70
44705;DHT22;30431;48.520;9.046;2023-07-13T01:12:51;17.90;98.70
44705;DHT22;30431;48.520;9.046;2023-07-13T01:15:35;17.90;98.70
44705;DHT22;30431;48.520;9.046;2023-07-13T01:18:05;17.90;98.30
44705;DHT22;30431;48.520;9.046;2023-07-13T01:20:36;18.00;98.60
44705;DHT22;30431;48.520;9.046;2023-07-13T01:23:07;18.00;97.80
44705;DHT22;30431;48.520;9.046;2023-07-13T01:25:35;18.10;97.30
44705;DHT22;30431;48.520;9.046;2023-07-13T01:28:08;18.10;96.90
44705;DHT22;30431;48.520;9.046;2023-07-13T01:30:38;18.10;97.10
44705;DHT22;30431;48.520;9.046;2023-07-13T01:33:07;18.10;97.30
44705;DHT22;30431;48.520;9.046;2023-07-13T01:35:36;18.10;97.40
44705;DHT22;30431;48.520;9.046;2023-07-13T01:38:04;18.00;97.80
44705;DHT22;30431;48.520;9.046;2023-07-13T01:40:31;17.90;98.20
44705;DHT22;30431;48.520;9.046;2023-07-13T01:43:00;17.80;98.40
44705;DHT22;30431;48.520;9.046;2023-07-13T01:45:32;17.70;99.00
44705;DHT22;30431;48.520;9.046;2023-07-13T01:48:02;17.60;99.40
44705;DHT22;30431;48.520;9.046;2023-07-13T01:50:29;17.60;99.70
44705;DHT22;30431;48.520;9.046;2023-07-13T01:52:56;17.50;99.90
44705;DHT22;30431;48.520;9.046;2023-07-13T01:55:23;17.40;99.70
44705;DHT22;30431;48.520;9.046;2023-07-13T01:57:50;17.40;99.90
44705;DHT22;30431;48.520;9.046;2023-07-13T02:00:18;17.30;99.90
44705;DHT22;30431;48.520;9.046;2023-07-13T02:02:47;17.30;99.90
44705;DHT22;30431;48.520;9.046;2023-07-13T02:05:14;17.20;99.90
44705;DHT22;30431;48.520;9.046;2023-07-13T02:07:41;17.20;99.90
44705;DHT22;30431;48.520;9.046;2023-07-13T02:10:09;17.10;99.90
44705;DHT22;30431;48.520;9.046;2023-07-13T02:12:36;17.00;99.90
44705;DHT22;30431;48.520;9.046;2023-07-13T02:15:04;16.90;99.90
44705;DHT22;30431;48.520;9.046;2023-07-13T02:17:34;17.00;99.90
44705;DHT22;30431;48.520;9.046;2023-07-13T02:20:03;17.00;99.90
44705;DHT22;30431;48.520;9.046;2023-07-13T02:22:31;16.90;99.90
44705;DHT22;30431;48.520;9.046;2023-07-13T02:24:58;16.90;99.90
44705;DHT22;30431;48.520;9.046;2023-07-13T02:27:27;16.80;99.90
44705;DHT22;30431;48.520;9.046;2023-07-13T02:29:54;16.80;99.90
44705;DHT22;30431;48.520;9.046;2023-07-13T02:32:26;16.70;99.90
44705;DHT22;30431;48.520;9.046;2023-07-13T02:34:55;16.60;99.90
44705;DHT22;30431;48.520;9.046;2023-07-13T02:37:22;16.60;99.90
44705;DHT22;30431;48.520;9.046;2023-07-13T02:39:52;16.50;99.90
44705;DHT22;30431;48.520;9.046;2023-07-13T02:42:19;16.40;99.90
44705;DHT22;30431;48.520;9.046;2023-07-13T02:44:45;16.40;99.90
44705;DHT22;30431;48.520;9.046;2023-07-13T02:47:17;16.30;99.90
44705;DHT22;30431;48.520;9.046;2023-07-13T02:49:44;16.30;99.90
44705;DHT22;30431;48.520;9.046;2023-07-13T02:52:11;16.20;99.90
44705;DHT22;30431;48.520;9.046;2023-07-13T02:54:38;16.20;99.90
44705;DHT22;30431;48.520;9.046;2023-07-13T02:57:06;16.10;99.90
44705;DHT22;30431;48.520;9.046;2023-07-13T02:59:33;16.10;99.90
44705;DHT22;30431;48.520;9.046;2023-07-13T03:02:01;16.10;99.90
44705;DHT22;30431;48.520;9.046;2023-07-13T03:04:31;16.00;99.90
44705;DHT22;30431;48.520;9.046;2023-07-13T03:07:01;16.00;99.90
44705;DHT22;30431;48.520;9.046;2023-07-13T03:09:35;16.00;99.90
44705;DHT22;30431;48.520;9.046;2023-07-13T03:12:05;15.80;99.90
44705;DHT22;30431;48.520;9.046;2023-07-13T03:14:32;15.70;99.90
44705;DHT22;30431;48.520;9.046;2023-07-13T03:17:05;15.70;99.90
44705;DHT22;30431;48.520;9.046;2023-07-13T03:19:35;15.80;99.90
44705;DHT22;30431;48.520;9.046;2023-07-13T03:22:03;15.80;99.90
44705;DHT22;30431;48.520;9.046;2023-07-13T03:24:33;15.90;99.90
44705;DHT22;30431;48.520;9.046;2023-07-13T03:27:06;15.90;99.90
44705;DHT22;30431;48.520;9.046;2023-07-13T03:29:35;16.00;99.90
44705;DHT22;30431;48.520;9.046;2023-07-13T03:32:03;16.10;99.90
44705;DHT22;30431;48.520;9.046;2023-07-13T03:34:31;16.20;99.90
44705;DHT22;30431;48.520;9.046;2023-07-13T03:37:00;16.20;99.90
44705;DHT22;30431;48.520;9.046;2023-07-13T03:39:27;16.20;99.90
44705;DHT22;30431;48.520;9.046;2023-07-13T03:41:56;16.10;99.90
44705;DHT22;30431;48.520;9.046;2023-07-13T03:44:27;16.10;99.90
44705;DHT22;30431;48.520;9.046;2023-07-13T03:46:56;16.00;99.90
44705;DHT22;30431;48.520;9.046;2023-07-13T03:49:23;16.00;99.90
44705;DHT22;30431;48.520;9.046;2023-07-13T03:51:50;16.00;99.90
44705;DHT22;30431;48.520;9.046;2023-07-13T03:54:20;15.90;99.90
44705;DHT22;30431;48.520;9.046;2023-07-13T03:56:48;15.90;99.90
44705;DHT22;30431;48.520;9.046;2023-07-13T03:59:16;16.00;99.90
44705;DHT22;30431;48.520;9.046;2023-07-13T04:01:45;15.80;99.90
44705;DHT22;30431;48.520;9.046;2023-07-13T04:04:12;15.70;99.90
44705;DHT22;30431;48.520;9.046;2023-07-13T04:06:42;15.80;99.90
44705;DHT22;30431;48.520;9.046;2023-07-13T04:09:11;15.80;99.90
44705;DHT22;30431;48.520;9.046;2023-07-13T04:11:38;15.80;99.90
44705;DHT22;30431;48.520;9.046;2023-07-13T04:14:06;15.80;99.90
44705;DHT22;30431;48.520;9.046;2023-07-13T04:16:36;15.70;99.90
44705;DHT22;30431;48.520;9.046;2023-07-13T04:19:03;15.70;99.90
44705;DHT22;30431;48.520;9.046;2023-07-13T04:21:32;15.80;99.90
44705;DHT22;30431;48.520;9.046;2023-07-13T04:23:59;15.80;99.90
44705;DHT22;30431;48.520;9.046;2023-07-13T04:26:26;15.80;99.90
44705;DHT22;30431;48.520;9.046;2023-07-13T04:28:57;15.80;99.90
44705;DHT22;30431;48.520;9.046;2023-07-13T04:31:26;15.80;99.90
44705;DHT22;30431;48.520;9.046;2023-07-13T04:33:53;15.80;99.90
44705;DHT22;30431;48.520;9.046;2023-07-13T04:36:20;15.90;99.90
44705;DHT22;30431;48.520;9.046;2023-07-13T04:38:47;15.80;99.90
44705;DHT22;30431;48.520;9.046;2023-07-13T04:41:15;15.80;99.90
44705;DHT22;30431;48.520;9.046;2023-07-13T04:43:42;15.80;99.90
44705;DHT22;30431;48.520;9.046;2023-07-13T04:46:11;15.70;99.90
44705;DHT22;30431;48.520;9.046;2023-07-13T04:48:42;15.70;99.90
44705;DHT22;30431;48.520;9.046;2023-07-13T04:51:09;15.70;99.90
44705;DHT22;30431;48.520;9.046;2023-07-13T04:53:36;15.70;99.90
44705;DHT22;30431;48.520;9.046;2023-07-13T04:56:06;15.70;99.90
44705;DHT22;30431;48.520;9.046;2023-07-13T04:58:33;15.90;99.90
44705;DHT22;30431;48.520;9.046;2023-07-13T05:01:04;16.00;99.90
44705;DHT22;30431;48.520;9.046;2023-07-13T05:03:32;16.20;99.90
44705;DHT22;30431;48.520;9.046;2023-07-13T05:06:08;16.30;99.90
44705;DHT22;30431;48.520;9.046;2023-07-13T05:08:38;16.30;99.90
44705;DHT22;30431;48.520;9.046;2023-07-13T05:11:05;16.30;99.90
44705;DHT22;30431;48.520;9.046;2023-07-13T05:13:34;16.30;99.90
44705;DHT22;30431;48.520;9.046;2023-07-13T05:16:04;16.40;99.90
44705;DHT22;30431;48.520;9.046;2023-07-13T05:18:36;16.50;99.90
44705;DHT22;30431;48.520;9.046;2023-07-13T05:21:09;16.80;99.90
44705;DHT22;30431;48.520;9.046;2023-07-13T05:23:39;16.80;99.90
44705;DHT22;30431;48.520;9.046;2023-07-13T05:26:08;17.00;99.90
44705;DHT22;30431;48.520;9.046;2023-07-13T05:28:36;17.10;99.90
44705;DHT22;30431;48.520;9.046;2023-07-13T05:31:10;17.20;99.90
44705;DHT22;30431;48.520;9.046;2023-07-13T05:33:38;17.20;99.90
44705;DHT22;30431;48.520;9.046;2023-07-13T05:36:07;17.40;99.90
44705;DHT22;30431;48.520;9.046;2023-07-13T05:38:34;17.50;99.90
44705;DHT22;30431;48.520;9.046;2023-07-13T05:41:04;17.30;99.90
44705;DHT22;30431;48.520;9.046;2023-07-13T05:43:33;17.30;99.90
44705;DHT22;30431;48.520;9.046;2023-07-13T05:49:25;17.30;99.90
44705;DHT22;30431;48.520;9.046;2023-07-13T05:51:52;17.50;99.90
44705;DHT22;30431;48.520;9.046;2023-07-13T05:54:22;17.70;99.90
44705;DHT22;30431;48.520;9.046;2023-07-13T05:56:49;17.90;99.90
44705;DHT22;30431;48.520;9.046;2023-07-13T05:59:21;18.00;99.90
44705;DHT22;30431;48.520;9.046;2023-07-13T06:01:49;18.10;99.90
44705;DHT22;30431;48.520;9.046;2023-07-13T06:04:16;18.30;99.70
44705;DHT22;30431;48.520;9.046;2023-07-13T06:06:46;18.60;98.70
44705;DHT22;30431;48.520;9.046;2023-07-13T06:09:13;18.90;97.40
44705;DHT22;30431;48.520;9.046;2023-07-13T06:11:45;19.00;97.10
44705;DHT22;30431;48.520;9.046;2023-07-13T06:14:14;19.00;96.40
44705;DHT22;30431;48.520;9.046;2023-07-13T06:16:41;18.90;95.80
44705;DHT22;30431;48.520;9.046;2023-07-13T06:19:10;19.20;95.20
44705;DHT22;30431;48.520;9.046;2023-07-13T06:21:37;19.50;94.80
44705;DHT22;30431;48.520;9.046;2023-07-13T06:24:06;19.70;94.20
44705;DHT22;30431;48.520;9.046;2023-07-13T06:26:33;19.80;93.90
44705;DHT22;30431;48.520;9.046;2023-07-13T06:29:00;19.70;93.60
44705;DHT22;30431;48.520;9.046;2023-07-13T06:31:27;19.50;93.00
44705;DHT22;30431;48.520;9.046;2023-07-13T06:33:54;19.10;93.20
44705;DHT22;30431;48.520;9.046;2023-07-13T06:36:21;19.00;94.50
44705;DHT22;30431;48.520;9.046;2023-07-13T06:38:48;19.00;95.60
44705;DHT22;30431;48.520;9.046;2023-07-13T06:41:15;19.00;95.00
44705;DHT22;30431;48.520;9.046;2023-07-13T06:43:44;19.10;95.70
44705;DHT22;30431;48.520;9.046;2023-07-13T06:46:12;19.30;95.90
44705;DHT22;30431;48.520;9.046;2023-07-13T06:48:42;19.80;94.30
44705;DHT22;30431;48.520;9.046;2023-07-13T06:51:09;20.10;92.90
44705;DHT22;30431;48.520;9.046;2023-07-13T06:56:26;20.10;92.70
44705;DHT22;30431;48.520;9.046;2023-07-13T06:58:55;20.10;92.50
44705;DHT22;30431;48.520;9.046;2023-07-13T07:01:24;20.00;92.00
44705;DHT22;30431;48.520;9.046;2023-07-13T07:03:58;20.10;92.70
44705;DHT22;30431;48.520;9.046;2023-07-13T07:06:25;20.10;90.00
44705;DHT22;30431;48.520;9.046;2023-07-13T07:08:55;20.20;83.20
44705;DHT22;30431;48.520;9.046;2023-07-13T07:11:24;20.30;84.70
44705;DHT22;30431;48.520;9.046;2023-07-13T07:13:53;20.40;82.20
44705;DHT22;30431;48.520;9.046;2023-07-13T07:16:21;20.30;81.00
44705;DHT22;30431;48.520;9.046;2023-07-13T07:18:50;20.50;81.50
44705;DHT22;30431;48.520;9.046;2023-07-13T07:21:17;20.50;79.20
44705;DHT22;30431;48.520;9.046;2023-07-13T07:23:46;20.60;76.90
44705;DHT22;30431;48.520;9.046;2023-07-13T07:26:16;20.70;74.40
44705;DHT22;30431;48.520;9.046;2023-07-13T07:28:45;20.80;75.40
44705;DHT22;30431;48.520;9.046;2023-07-13T07:31:32;20.90;74.20
44705;DHT22;30431;48.520;9.046;2023-07-13T07:34:02;21.00;68.90
44705;DHT22;30431;48.520;9.046;2023-07-13T07:36:29;21.00;68.10
44705;DHT22;30431;48.520;9.046;2023-07-13T07:39:01;21.00;69.00
44705;DHT22;30431;48.520;9.046;2023-07-13T07:41:31;21.10;70.00
44705;DHT22;30431;48.520;9.046;2023-07-13T07:44:03;21.20;70.70
44705;DHT22;30431;48.520;9.046;2023-07-13T07:46:31;21.20;68.20
44705;DHT22;30431;48.520;9.046;2023-07-13T07:49:00;21.20;68.00
44705;DHT22;30431;48.520;9.046;2023-07-13T07:51:27;21.20;68.10
44705;DHT22;30431;48.520;9.046;2023-07-13T07:53:55;21.30;67.40
44705;DHT22;30431;48.520;9.046;2023-07-13T07:56:24;21.40;66.90
44705;DHT22;30431;48.520;9.046;2023-07-13T07:58:57;21.60;66.30
44705;DHT22;30431;48.520;9.046;2023-07-13T08:01:27;21.60;63.60
44705;DHT22;30431;48.520;9.046;2023-07-13T08:03:57;21.60;62.60
44705;DHT22;30431;48.520;9.046;2023-07-13T08:06:27;21.70;63.70
44705;DHT22;30431;48.520;9.046;2023-07-13T08:09:11;21.70;65.00
44705;DHT22;30431;48.520;9.046;2023-07-13T08:11:40;21.90;65.90
44705;DHT22;30431;48.520;9.046;2023-07-13T08:14:13;22.00;60.60
44705;DHT22;30431;48.520;9.046;2023-07-13T08:16:40;22.00;59.40
44705;DHT22;30431;48.520;9.046;2023-07-13T08:19:07;21.80;59.30
44705;DHT22;30431;48.520;9.046;2023-07-13T08:21:36;22.00;59.40
44705;DHT22;30431;48.520;9.046;2023-07-13T08:24:03;21.90;58.50
44705;DHT22;30431;48.520;9.046;2023-07-13T08:26:33;22.00;59.40
44705;DHT22;30431;48.520;9.046;2023-07-13T08:29:00;22.00;59.40
44705;DHT22;30431;48.520;9.046;2023-07-13T08:31:27;22.20;60.90
44705;DHT22;30431;48.520;9.046;2023-07-13T08:33:56;22.20;61.10
44705;DHT22;30431;48.520;9.046;2023-07-13T08:36:26;22.40;60.80
44705;DHT22;30431;48.520;9.046;2023-07-13T08:38:56;22.40;58.30
44705;DHT22;30431;48.520;9.046;2023-07-13T08:41:29;22.50;60.40
44705;DHT22;30431;48.520;9.046;2023-07-13T08:43:58;22.50;57.10
44705;DHT22;30431;48.520;9.046;2023-07-13T08:49:13;22.60;57.40
44705;DHT22;30431;48.520;9.046;2023-07-13T08:51:51;22.70;57.50
44705;DHT22;30431;48.520;9.046;2023-07-13T08:56:56;22.80;57.20
44705;DHT22;30431;48.520;9.046;2023-07-13T08:59:28;23.00;53.90
44705;DHT22;30431;48.520;9.046;2023-07-13T09:04:53;23.30;54.00
44705;DHT22;30431;48.520;9.046;2023-07-13T09:07:42;23.40;54.60
44705;DHT22;30431;48.520;9.046;2023-07-13T09:10:20;23.60;52.80
44705;DHT22;30431;48.520;9.046;2023-07-13T09:13:26;23.80;53.60
44705;DHT22;30431;48.520;9.046;2023-07-13T09:15:55;23.80;52.60
44705;DHT22;30431;48.520;9.046;2023-07-13T09:20:55;23.70;52.40
44705;DHT22;30431;48.520;9.046;2023-07-13T09:23:27;23.60;52.40
44705;DHT22;30431;48.520;9.046;2023-07-13T09:26:21;23.50;51.80
44705;DHT22;30431;48.520;9.046;2023-07-13T09:28:52;23.60;53.40
44705;DHT22;30431;48.520;9.046;2023-07-13T09:31:32;23.60;52.70
44705;DHT22;30431;48.520;9.046;2023-07-13T09:34:01;23.80;50.30
44705;DHT22;30431;48.520;9.046;2023-07-13T09:36:30;24.00;49.70
44705;DHT22;30431;48.520;9.046;2023-07-13T09:41:52;25.00;50.80
44705;DHT22;30431;48.520;9.046;2023-07-13T09:44:34;25.30;47.90
44705;DHT22;30431;48.520;9.046;2023-07-13T09:47:16;25.70;47.00
44705;DHT22;30431;48.520;9.046;2023-07-13T09:49:55;25.90;46.90
44705;DHT22;30431;48.520;9.046;2023-07-13T09:52:50;26.00;46.80
44705;DHT22;30431;48.520;9.046;2023-07-13T09:57:52;25.70;47.20
44705;DHT22;30431;48.520;9.046;2023-07-13T10:00:28;25.80;45.90
44705;DHT22;30431;48.520;9.046;2023-07-13T10:05:41;25.60;45.20
44705;DHT22;30431;48.520;9.046;2023-07-13T10:11:08;25.50;43.40
44705;DHT22;30431;48.520;9.046;2023-07-13T10:13:45;25.40;45.20
44705;DHT22;30431;48.520;9.046;2023-07-13T10:16:12;26.10;43.10
44705;DHT22;30431;48.520;9.046;2023-07-13T10:18:46;26.50;43.00
44705;DHT22;30431;48.520;9.046;2023-07-13T10:21:20;27.00;41.80
44705;DHT22;30431;48.520;9.046;2023-07-13T10:24:21;26.30;41.10
44705;DHT22;30431;48.520;9.046;2023-07-13T10:27:02;26.20;42.90
44705;DHT22;30431;48.520;9.046;2023-07-13T10:29:36;26.60;41.60
44705;DHT22;30431;48.520;9.046;2023-07-13T10:32:12;26.80;41.30
44705;DHT22;30431;48.520;9.046;2023-07-13T10:34:47;26.80;40.70
44705;DHT22;30431;48.520;9.046;2023-07-13T10:37:22;26.80;40.90
44705;DHT22;30431;48.520;9.046;2023-07-13T10:39:54;27.20;40.50
44705;DHT22;30431;48.520;9.046;2023-07-13T10:42:43;26.70;40.60
44705;DHT22;30431;48.520;9.046;2023-07-13T10:45:18;26.50;41.40
44705;DHT22;30431;48.520;9.046;2023-07-13T10:47:47;26.60;41.50
44705;DHT22;30431;48.520;9.046;2023-07-13T10:50:24;27.00;40.50
44705;DHT22;30431;48.520;9.046;2023-07-13T10:52:54;27.20;40.30
44705;DHT22;30431;48.520;9.046;2023-07-13T10:55:40;27.20;42.00
44705;DHT22;30431;48.520;9.046;2023-07-13T11:01:09;27.00;42.90
44705;DHT22;30431;48.520;9.046;2023-07-13T11:03:38;27.30;41.90
44705;DHT22;30431;48.520;9.046;2023-07-13T11:06:13;27.80;41.10
44705;DHT22;30431;48.520;9.046;2023-07-13T11:21:23;26.10;42.30
44705;DHT22;30431;48.520;9.046;2023-07-13T11:24:05;25.90;43.70
44705;DHT22;30431;48.520;9.046;2023-07-13T11:26:52;25.60;42.70
44705;DHT22;30431;48.520;9.046;2023-07-13T11:31:54;25.60;42.30
44705;DHT22;30431;48.520;9.046;2023-07-13T11:34:30;25.50;42.40
44705;DHT22;30431;48.520;9.046;2023-07-13T11:36:59;25.50;44.00
44705;DHT22;30431;48.520;9.046;2023-07-13T11:39:32;25.70;44.00
44705;DHT22;30431;48.520;9.046;2023-07-13T11:42:05;26.10;43.70
44705;DHT22;30431;48.520;9.046;2023-07-13T11:44:34;26.70;40.50
44705;DHT22;30431;48.520;9.046;2023-07-13T11:47:17;27.10;38.90
44705;DHT22;30431;48.520;9.046;2023-07-13T11:49:57;27.60;38.60
44705;DHT22;30431;48.520;9.046;2023-07-13T11:52:34;28.00;39.90
44705;DHT22;30431;48.520;9.046;2023-07-13T11:55:14;28.20;37.10
44705;DHT22;30431;48.520;9.046;2023-07-13T11:57:56;28.40;37.30
44705;DHT22;30431;48.520;9.046;2023-07-13T12:00:29;28.80;37.10
44705;DHT22;30431;48.520;9.046;2023-07-13T12:03:02;28.40;35.30
44705;DHT22;30431;48.520;9.046;2023-07-13T12:05:31;27.30;35.80
44705;DHT22;30431;48.520;9.046;2023-07-13T12:07:59;27.00;37.40
44705;DHT22;30431;48.520;9.046;2023-07-13T12:10:37;26.60;37.20
44705;DHT22;30431;48.520;9.046;2023-07-13T12:13:05;26.50;37.70
44705;DHT22;30431;48.520;9.046;2023-07-13T12:15:43;26.50;37.40
44705;DHT22;30431;48.520;9.046;2023-07-13T12:18:18;26.70;37.70
44705;DHT22;30431;48.520;9.046;2023-07-13T12:20:48;27.20;37.10
44705;DHT22;30431;48.520;9.046;2023-07-13T12:23:43;27.70;36.90
44705;DHT22;30431;48.520;9.046;2023-07-13T12:26:13;28.20;37.80
44705;DHT22;30431;48.520;9.046;2023-07-13T12:28:55;28.10;34.60
44705;DHT22;30431;48.520;9.046;2023-07-13T12:31:30;27.80;35.90
44705;DHT22;30431;48.520;9.046;2023-07-13T12:34:10;27.60;36.10
44705;DHT22;30431;48.520;9.046;2023-07-13T12:36:47;28.00;36.50
44705;DHT22;30431;48.520;9.046;2023-07-13T12:41:53;27.80;33.80
44705;DHT22;30431;48.520;9.046;2023-07-13T12:44:28;27.30;35.40
44705;DHT22;30431;48.520;9.046;2023-07-13T12:47:09;27.40;35.30
44705;DHT22;30431;48.520;9.046;2023-07-13T12:49:47;27.60;37.60
44705;DHT22;30431;48.520;9.046;2023-07-13T12:52:20;27.80;35.00
44705;DHT22;30431;48.520;9.046;2023-07-13T12:57:57;28.40;34.10
44705;DHT22;30431;48.520;9.046;2023-07-13T13:00:31;28.40;34.10
44705;DHT22;30431;48.520;9.046;2023-07-13T13:06:04;28.20;33.70
44705;DHT22;30431;48.520;9.046;2023-07-13T13:08:34;28.20;33.60
44705;DHT22;30431;48.520;9.046;2023-07-13T13:11:04;28.70;33.80
44705;DHT22;30431;48.520;9.046;2023-07-13T13:13:31;28.50;33.50
44705;DHT22;30431;48.520;9.046;2023-07-13T13:16:02;28.60;32.50
44705;DHT22;30431;48.520;9.046;2023-07-13T13:18:35;28.40;32.10
44705;DHT22;30431;48.520;9.046;2023-07-13T13:21:04;28.00;33.00
44705;DHT22;30431;48.520;9.046;2023-07-13T13:23:32;27.70;33.70
44705;DHT22;30431;48.520;9.046;2023-07-13T13:26:02;27.20;34.10
44705;DHT22;30431;48.520;9.046;2023-07-13T13:28:29;26.70;34.60
44705;DHT22;30431;48.520;9.046;2023-07-13T13:30:56;26.30;34.60
44705;DHT22;30431;48.520;9.046;2023-07-13T13:33:26;26.30;35.90
44705;DHT22;30431;48.520;9.046;2023-07-13T13:35:53;26.10;36.00
44705;DHT22;30431;48.520;9.046;2023-07-13T13:38:27;26.00;35.60
44705;DHT22;30431;48.520;9.046;2023-07-13T13:40:57;26.30;36.80
44705;DHT22;30431;48.520;9.046;2023-07-13T13:43:24;26.70;37.40
44705;DHT22;30431;48.520;9.046;2023-07-13T13:45:58;27.10;38.00
44705;DHT22;30431;48.520;9.046;2023-07-13T13:48:33;27.30;35.70
44705;DHT22;30431;48.520;9.046;2023-07-13T13:51:12;27.40;35.00
44705;DHT22;30431;48.520;9.046;2023-07-13T13:53:42;27.30;34.90
44705;DHT22;30431;48.520;9.046;2023-07-13T13:56:09;27.10;34.10
44705;DHT22;30431;48.520;9.046;2023-07-13T13:58:37;27.00;34.40
44705;DHT22;30431;48.520;9.046;2023-07-13T14:01:04;26.70;34.80
44705;DHT22;30431;48.520;9.046;2023-07-13T14:03:35;26.70;34.90
44705;DHT22;30431;48.520;9.046;2023-07-13T14:06:10;26.80;35.10
44705;DHT22;30431;48.520;9.046;2023-07-13T14:08:40;26.70;34.20
44705;DHT22;30431;48.520;9.046;2023-07-13T14:11:12;26.70;34.60
44705;DHT22;30431;48.520;9.046;2023-07-13T14:13:49;26.90;34.50
44705;DHT22;30431;48.520;9.046;2023-07-13T14:16:21;26.90;34.90
44705;DHT22;30431;48.520;9.046;2023-07-13T14:18:49;26.80;34.30
44705;DHT22;30431;48.520;9.046;2023-07-13T14:21:19;26.70;33.10
44705;DHT22;30431;48.520;9.046;2023-07-13T14:23:48;26.70;33.60
44705;DHT22;30431;48.520;9.046;2023-07-13T14:26:21;26.80;34.10
44705;DHT22;30431;48.520;9.046;2023-07-13T14:28:55;26.60;34.40
44705;DHT22;30431;48.520;9.046;2023-07-13T14:31:26;26.60;34.60
44705;DHT22;30431;48.520;9.046;2023-07-13T14:33:59;26.70;33.70
44705;DHT22;30431;48.520;9.046;2023-07-13T14:38:57;26.50;34.90
44705;DHT22;30431;48.520;9.046;2023-07-13T14:41:27;26.60;34.90
44705;DHT22;30431;48.520;9.046;2023-07-13T14:43:59;26.40;34.40
44705;DHT22;30431;48.520;9.046;2023-07-13T14:46:34;26.30;35.50
44705;DHT22;30431;48.520;9.046;2023-07-13T14:49:04;26.40;34.60
44705;DHT22;30431;48.520;9.046;2023-07-13T14:51:33;26.60;34.30
44705;DHT22;30431;48.520;9.046;2023-07-13T14:54:04;26.70;35.10
44705;DHT22;30431;48.520;9.046;2023-07-13T14:56:38;26.70;35.20
44705;DHT22;30431;48.520;9.046;2023-07-13T14:59:05;26.70;35.80
44705;DHT22;30431;48.520;9.046;2023-07-13T15:01:36;27.00;35.40
44705;DHT22;30431;48.520;9.046;2023-07-13T15:04:04;27.20;34.30
44705;DHT22;30431;48.520;9.046;2023-07-13T15:06:59;27.20;33.30
44705;DHT22;30431;48.520;9.046;2023-07-13T15:09:31;27.30;33.00
44705;DHT22;30431;48.520;9.046;2023-07-13T15:11:58;27.50;33.60
44705;DHT22;30431;48.520;9.046;2023-07-13T15:14:28;27.50;34.80
44705;DHT22;30431;48.520;9.046;2023-07-13T15:16:58;27.50;34.80
44705;DHT22;30431;48.520;9.046;2023-07-13T15:19:28;27.00;35.60
44705;DHT22;30431;48.520;9.046;2023-07-13T15:21:56;26.90;36.00
44705;DHT22;30431;48.520;9.046;2023-07-13T15:24:28;26.60;36.10
44705;DHT22;30431;48.520;9.046;2023-07-13T15:26:55;26.80;37.00
44705;DHT22;30431;48.520;9.046;2023-07-13T15:29:25;27.10;36.40
44705;DHT22;30431;48.520;9.046;2023-07-13T15:31:52;27.20;35.90
44705;DHT22;30431;48.520;9.046;2023-07-13T15:34:23;27.20;35.90
44705;DHT22;30431;48.520;9.046;2023-07-13T15:36:56;27.20;36.30
44705;DHT22;30431;48.520;9.046;2023-07-13T15:39:25;27.20;37.20
44705;DHT22;30431;48.520;9.046;2023-07-13T15:41:52;27.30;37.40
44705;DHT22;30431;48.520;9.046;2023-07-13T15:44:29;27.30;37.20
44705;DHT22;30431;48.520;9.046;2023-07-13T15:46:57;27.30;37.30
44705;DHT22;30431;48.520;9.046;2023-07-13T15:49:30;27.20;37.90
44705;DHT22;30431;48.520;9.046;2023-07-13T15:51:59;27.20;38.10
44705;DHT22;30431;48.520;9.046;2023-07-13T15:54:29;27.00;37.60
44705;DHT22;30431;48.520;9.046;2023-07-13T15:57:01;26.50;38.00
44705;DHT22;30431;48.520;9.046;2023-07-13T15:59:29;26.70;38.60
44705;DHT22;30431;48.520;9.046;2023-07-13T16:01:55;26.70;39.20
44705;DHT22;30431;48.520;9.046;2023-07-13T16:04:27;26.80;38.70
44705;DHT22;30431;48.520;9.046;2023-07-13T16:06:54;26.80;39.00
44705;DHT22;30431;48.520;9.046;2023-07-13T16:09:22;26.70;39.00
44705;DHT22;30431;48.520;9.046;2023-07-13T16:11:50;26.70;38.50
44705;DHT22;30431;48.520;9.046;2023-07-13T16:14:20;26.60;38.50
44705;DHT22;30431;48.520;9.046;2023-07-13T16:16:56;26.40;38.70
44705;DHT22;30431;48.520;9.046;2023-07-13T16:19:28;26.10;39.00
44705;DHT22;30431;48.520;9.046;2023-07-13T16:21:58;25.80;39.80
44705;DHT22;30431;48.520;9.046;2023-07-13T16:24:32;26.00;40.70
44705;DHT22;30431;48.520;9.046;2023-07-13T16:26:59;26.30;40.20
44705;DHT22;30431;48.520;9.046;2023-07-13T16:29:30;26.30;39.70
44705;DHT22;30431;48.520;9.046;2023-07-13T16:32:06;26.70;39.40
44705;DHT22;30431;48.520;9.046;2023-07-13T16:34:40;26.90;40.10
44705;DHT22;30431;48.520;9.046;2023-07-13T16:37:18;26.90;38.50
44705;DHT22;30431;48.520;9.046;2023-07-13T16:39:53;26.90;38.90
44705;DHT22;30431;48.520;9.046;2023-07-13T16:42:24;26.80;38.10
44705;DHT22;30431;48.520;9.046;2023-07-13T16:44:54;26.70;39.00
44705;DHT22;30431;48.520;9.046;2023-07-13T16:47:25;26.60;39.70
44705;DHT22;30431;48.520;9.046;2023-07-13T16:49:52;26.30;44.80